sensor_id;sensor_type;location;lat;lon;timestamp;temperature;humidity
16511;DHT22;8368;48.772;8.754;2023-10-13T00:01:53;16.20;99.90
16511;DHT22;8368;48.772;8.754;2023-10-13T00:04:20;16.10;99.90
16511;DHT22;8368;48.772;8.754;2023-10-13T00:06:48;16.00;99.90
16511;DHT22;8368;48.772;8.754;2023-10-13T00:09:14;15.90;99.90
16511;DHT22;8368;48.772;8.754;2023-10-13T00:11:43;15.80;99.90
16511;DHT22;8368;48.772;8.754;2023-10-13T00:14:14;15.70;99.90
16511;DHT22;8368;48.772;8.754;2023-10-13T00:16:44;15.70;99.90
16511;DHT22;8368;48.772;8.754;2023-10-13T00:19:35;15.60;99.90
16511;DHT22;8368;48.772;8.754;2023-10-13T00:22:10;15.50;99.90
16511;DHT22;8368;48.772;8.754;2023-10-13T00:24:39;15.50;99.90
16511;DHT22;8368;48.772;8.754;2023-10-13T00:27:13;15.40;99.90
16511;DHT22;8368;48.772;8.754;2023-10-13T00:30:06;15.40;99.90
16511;DHT22;8368;48.772;8.754;2023-10-13T00:32:50;15.40;99.90
16511;DHT22;8368;48.772;8.754;2023-10-13T00:35:23;15.40;99.90
16511;DHT22;8368;48.772;8.754;2023-10-13T00:38:01;15.40;99.90
16511;DHT22;8368;48.772;8.754;2023-10-13T00:40:41;15.40;99.90
16511;DHT22;8368;48.772;8.754;2023-10-13T00:43:08;15.40;99.90
16511;DHT22;8368;48.772;8.754;2023-10-13T00:45:56;15.40;99.90
16511;DHT22;8368;48.772;8.754;2023-10-13T00:48:29;15.40;99.90
16511;DHT22;8368;48.772;8.754;2023-10-13T00:51:06;15.40;99.90
16511;DHT22;8368;48.772;8.754;2023-10-13T00:53:36;15.30;99.90
16511;DHT22;8368;48.772;8.754;2023-10-13T00:56:10;15.30;99.90
16511;DHT22;8368;48.772;8.754;2023-10-13T00:58:45;15.20;99.90
16511;DHT22;8368;48.772;8.754;2023-10-13T01:01:18;15.20;99.90
16511;DHT22;8368;48.772;8.754;2023-10-13T01:03:53;15.20;99.90
16511;DHT22;8368;48.772;8.754;2023-10-13T01:06:25;15.20;99.90
16511;DHT22;8368;48.772;8.754;2023-10-13T01:09:08;15.30;99.90
16511;DHT22;8368;48.772;8.754;2023-10-13T01:11:45;15.40;99.90
16511;DHT22;8368;48.772;8.754;2023-10-13T01:14:12;15.40;99.90
16511;DHT22;8368;48.772;8.754;2023-10-13T01:16:40;15.50;99.90
16511;DHT22;8368;48.772;8.754;2023-10-13T01:19:12;15.40;99.90
16511;DHT22;8368;48.772;8.754;2023-10-13T01:21:39;15.40;99.90
16511;DHT22;8368;48.772;8.754;2023-10-13T01:24:10;15.30;99.90
16511;DHT22;8368;48.772;8.754;2023-10-13T01:26:39;15.20;99.90
16511;DHT22;8368;48.772;8.754;2023-10-13T01:29:06;15.20;99.90
16511;DHT22;8368;48.772;8.754;2023-10-13T01:31:42;15.00;99.90
16511;DHT22;8368;48.772;8.754;2023-10-13T01:34:18;14.90;99.90
16511;DHT22;8368;48.772;8.754;2023-10-13T01:36:55;14.80;99.90
16511;DHT22;8368;48.772;8.754;2023-10-13T01:39:22;14.70;99.90
16511;DHT22;8368;48.772;8.754;2023-10-13T01:41:52;14.60;99.90
16511;DHT22;8368;48.772;8.754;2023-10-13T01:44:27;14.50;99.90
16511;DHT22;8368;48.772;8.754;2023-10-13T01:46:59;14.50;99.90
16511;DHT22;8368;48.772;8.754;2023-10-13T01:49:34;14.40;99.90
16511;DHT22;8368;48.772;8.754;2023-10-13T01:52:13;14.30;99.90
16511;DHT22;8368;48.772;8.754;2023-10-13T01:54:50;14.30;99.90
16511;DHT22;8368;48.772;8.754;2023-10-13T01:57:16;14.20;99.90
16511;DHT22;8368;48.772;8.754;2023-10-13T01:59:49;14.20;99.90
16511;DHT22;8368;48.772;8.754;2023-10-13T02:02:16;14.10;99.90
16511;DHT22;8368;48.772;8.754;2023-10-13T02:04:52;14.00;99.90
16511;DHT22;8368;48.772;8.754;2023-10-13T02:07:27;14.00;99.90
16511;DHT22;8368;48.772;8.754;2023-10-13T02:09:58;13.90;99.90
16511;DHT22;8368;48.772;8.754;2023-10-13T02:12:24;13.90;99.90
16511;DHT22;8368;48.772;8.754;2023-10-13T02:15:11;13.80;99.90
16511;DHT22;8368;48.772;8.754;2023-10-13T02:17:52;13.80;99.90
16511;DHT22;8368;48.772;8.754;2023-10-13T02:20:20;13.70;99.90
16511;DHT22;8368;48.772;8.754;2023-10-13T02:22:49;13.70;99.90
16511;DHT22;8368;48.772;8.754;2023-10-13T02:25:16;13.60;99.90
16511;DHT22;8368;48.772;8.754;2023-10-13T02:27:43;13.60;99.90
16511;DHT22;8368;48.772;8.754;2023-10-13T02:30:13;13.60;99.90
16511;DHT22;8368;48.772;8.754;2023-10-13T02:32:40;13.50;99.90
16511;DHT22;8368;48.772;8.754;2023-10-13T02:35:09;13.50;99.90
16511;DHT22;8368;48.772;8.754;2023-10-13T02:37:41;13.50;99.90
16511;DHT22;8368;48.772;8.754;2023-10-13T02:40:11;13.40;99.90
16511;DHT22;8368;48.772;8.754;2023-10-13T02:42:36;13.40;99.90
16511;DHT22;8368;48.772;8.754;2023-10-13T02:45:03;13.30;99.90
16511;DHT22;8368;48.772;8.754;2023-10-13T02:47:30;13.30;99.90
16511;DHT22;8368;48.772;8.754;2023-10-13T02:49:57;13.20;99.90
16511;DHT22;8368;48.772;8.754;2023-10-13T02:52:26;13.20;99.90
16511;DHT22;8368;48.772;8.754;2023-10-13T02:54:52;13.10;99.90
16511;DHT22;8368;48.772;8.754;2023-10-13T02:57:18;13.10;99.90
16511;DHT22;8368;48.772;8.754;2023-10-13T02:59:44;13.00;99.90
16511;DHT22;8368;48.772;8.754;2023-10-13T03:02:14;13.00;99.90
16511;DHT22;8368;48.772;8.754;2023-10-13T03:04:49;12.90;99.90
16511;DHT22;8368;48.772;8.754;2023-10-13T03:07:15;12.80;99.90
16511;DHT22;8368;48.772;8.754;2023-10-13T03:09:42;12.80;99.90
16511;DHT22;8368;48.772;8.754;2023-10-13T03:12:16;12.70;99.90
16511;DHT22;8368;48.772;8.754;2023-10-13T03:14:42;12.70;99.90
16511;DHT22;8368;48.772;8.754;2023-10-13T03:17:13;12.60;99.90
16511;DHT22;8368;48.772;8.754;2023-10-13T03:19:44;12.60;99.90
16511;DHT22;8368;48.772;8.754;2023-10-13T03:22:17;12.50;99.90
16511;DHT22;8368;48.772;8.754;2023-10-13T03:24:44;12.50;99.90
16511;DHT22;8368;48.772;8.754;2023-10-13T03:27:21;12.40;99.90
16511;DHT22;8368;48.772;8.754;2023-10-13T03:29:50;12.40;99.90
16511;DHT22;8368;48.772;8.754;2023-10-13T03:32:22;12.40;99.90
16511;DHT22;8368;48.772;8.754;2023-10-13T03:34:47;12.40;99.90
16511;DHT22;8368;48.772;8.754;2023-10-13T03:37:25;12.40;99.90
16511;DHT22;8368;48.772;8.754;2023-10-13T03:40:09;12.40;99.90
16511;DHT22;8368;48.772;8.754;2023-10-13T03:43:01;12.30;99.90
16511;DHT22;8368;48.772;8.754;2023-10-13T03:45:34;12.20;99.90
16511;DHT22;8368;48.772;8.754;2023-10-13T03:50:38;12.20;99.90
16511;DHT22;8368;48.772;8.754;2023-10-13T03:53:13;12.20;99.90
16511;DHT22;8368;48.772;8.754;2023-10-13T03:55:39;12.20;99.90
16511;DHT22;8368;48.772;8.754;2023-10-13T03:58:04;12.20;99.90
16511;DHT22;8368;48.772;8.754;2023-10-13T04:00:30;12.30;99.90
16511;DHT22;8368;48.772;8.754;2023-10-13T04:02:57;12.40;99.90
16511;DHT22;8368;48.772;8.754;2023-10-13T04:05:32;12.40;99.90
16511;DHT22;8368;48.772;8.754;2023-10-13T04:08:04;12.50;99.90
16511;DHT22;8368;48.772;8.754;2023-10-13T04:10:55;12.50;99.90
16511;DHT22;8368;48.772;8.754;2023-10-13T04:13:21;12.60;99.90
16511;DHT22;8368;48.772;8.754;2023-10-13T04:16:07;12.70;99.90
16511;DHT22;8368;48.772;8.754;2023-10-13T04:18:49;12.70;99.90
16511;DHT22;8368;48.772;8.754;2023-10-13T04:21:24;12.80;99.90
16511;DHT22;8368;48.772;8.754;2023-10-13T04:26:43;12.80;99.90
16511;DHT22;8368;48.772;8.754;2023-10-13T04:29:28;12.90;99.90
16511;DHT22;8368;48.772;8.754;2023-10-13T04:32:13;12.90;99.90
16511;DHT22;8368;48.772;8.754;2023-10-13T04:34:40;12.90;99.90
16511;DHT22;8368;48.772;8.754;2023-10-13T04:37:11;12.90;99.90
16511;DHT22;8368;48.772;8.754;2023-10-13T04:39:57;12.90;99.90
16511;DHT22;8368;48.772;8.754;2023-10-13T04:42:34;12.90;99.90
16511;DHT22;8368;48.772;8.754;2023-10-13T04:45:18;12.90;99.90
16511;DHT22;8368;48.772;8.754;2023-10-13T04:47:56;12.90;99.90
16511;DHT22;8368;48.772;8.754;2023-10-13T04:50:40;13.00;99.90
16511;DHT22;8368;48.772;8.754;2023-10-13T04:53:17;13.10;99.90
16511;DHT22;8368;48.772;8.754;2023-10-13T04:55:56;13.10;99.90
16511;DHT22;8368;48.772;8.754;2023-10-13T04:58:42;13.20;99.90
16511;DHT22;8368;48.772;8.754;2023-10-13T05:01:27;13.40;99.90
16511;DHT22;8368;48.772;8.754;2023-10-13T05:03:53;13.60;99.90
16511;DHT22;8368;48.772;8.754;2023-10-13T05:06:38;13.70;99.90
16511;DHT22;8368;48.772;8.754;2023-10-13T05:09:10;13.80;99.90
16511;DHT22;8368;48.772;8.754;2023-10-13T05:11:54;13.90;99.90
16511;DHT22;8368;48.772;8.754;2023-10-13T05:14:39;13.90;99.90
16511;DHT22;8368;48.772;8.754;2023-10-13T05:17:23;13.90;99.90
16511;DHT22;8368;48.772;8.754;2023-10-13T05:20:08;14.00;99.90
16511;DHT22;8368;48.772;8.754;2023-10-13T05:22:52;14.10;99.90
16511;DHT22;8368;48.772;8.754;2023-10-13T05:25:37;14.20;99.90
16511;DHT22;8368;48.772;8.754;2023-10-13T05:28:21;14.20;99.90
16511;DHT22;8368;48.772;8.754;2023-10-13T05:31:09;14.10;99.90
16511;DHT22;8368;48.772;8.754;2023-10-13T05:33:53;14.20;99.90
16511;DHT22;8368;48.772;8.754;2023-10-13T05:36:37;14.20;99.90
16511;DHT22;8368;48.772;8.754;2023-10-13T05:39:22;14.10;99.90
16511;DHT22;8368;48.772;8.754;2023-10-13T05:42:07;14.20;99.90
16511;DHT22;8368;48.772;8.754;2023-10-13T05:44:51;14.20;99.90
16511;DHT22;8368;48.772;8.754;2023-10-13T05:47:35;14.20;99.90
16511;DHT22;8368;48.772;8.754;2023-10-13T05:50:04;14.30;99.90
16511;DHT22;8368;48.772;8.754;2023-10-13T05:52:50;14.40;99.90
16511;DHT22;8368;48.772;8.754;2023-10-13T05:55:25;14.50;99.90
16511;DHT22;8368;48.772;8.754;2023-10-13T05:58:10;14.50;99.90
16511;DHT22;8368;48.772;8.754;2023-10-13T06:00:55;14.60;99.90
16511;DHT22;8368;48.772;8.754;2023-10-13T06:03:39;14.60;99.90
16511;DHT22;8368;48.772;8.754;2023-10-13T06:06:23;14.70;99.90
16511;DHT22;8368;48.772;8.754;2023-10-13T06:09:07;14.70;99.90
16511;DHT22;8368;48.772;8.754;2023-10-13T06:11:51;14.70;99.90
16511;DHT22;8368;48.772;8.754;2023-10-13T06:14:35;14.70;99.90
16511;DHT22;8368;48.772;8.754;2023-10-13T06:17:19;14.70;99.90
16511;DHT22;8368;48.772;8.754;2023-10-13T06:20:04;14.70;99.90
16511;DHT22;8368;48.772;8.754;2023-10-13T06:22:49;14.60;99.90
16511;DHT22;8368;48.772;8.754;2023-10-13T06:25:34;14.60;99.90
16511;DHT22;8368;48.772;8.754;2023-10-13T06:28:18;14.50;99.90
16511;DHT22;8368;48.772;8.754;2023-10-13T06:31:04;14.50;99.90
16511;DHT22;8368;48.772;8.754;2023-10-13T06:33:33;14.50;99.90
16511;DHT22;8368;48.772;8.754;2023-10-13T06:36:03;14.50;99.90
16511;DHT22;8368;48.772;8.754;2023-10-13T06:38:29;14.50;99.90
16511;DHT22;8368;48.772;8.754;2023-10-13T06:41:05;14.50;99.90
16511;DHT22;8368;48.772;8.754;2023-10-13T06:43:37;14.50;99.90
16511;DHT22;8368;48.772;8.754;2023-10-13T06:46:11;14.50;99.90
16511;DHT22;8368;48.772;8.754;2023-10-13T06:48:48;14.50;99.90
16511;DHT22;8368;48.772;8.754;2023-10-13T06:51:18;14.50;99.90
16511;DHT22;8368;48.772;8.754;2023-10-13T06:53:47;14.60;99.90
16511;DHT22;8368;48.772;8.754;2023-10-13T06:56:14;14.60;99.90
16511;DHT22;8368;48.772;8.754;2023-10-13T06:58:48;14.70;99.90
16511;DHT22;8368;48.772;8.754;2023-10-13T07:01:14;14.70;99.90
16511;DHT22;8368;48.772;8.754;2023-10-13T07:03:47;14.80;99.90
16511;DHT22;8368;48.772;8.754;2023-10-13T07:06:18;14.80;99.90
16511;DHT22;8368;48.772;8.754;2023-10-13T07:08:48;14.90;99.90
16511;DHT22;8368;48.772;8.754;2023-10-13T07:11:24;14.90;99.90
16511;DHT22;8368;48.772;8.754;2023-10-13T07:14:00;15.00;99.90
16511;DHT22;8368;48.772;8.754;2023-10-13T07:16:34;15.10;99.90
16511;DHT22;8368;48.772;8.754;2023-10-13T07:19:00;15.20;99.90
16511;DHT22;8368;48.772;8.754;2023-10-13T07:21:31;15.20;99.90
16511;DHT22;8368;48.772;8.754;2023-10-13T07:23:57;15.30;99.90
16511;DHT22;8368;48.772;8.754;2023-10-13T07:26:37;15.30;99.90
16511;DHT22;8368;48.772;8.754;2023-10-13T07:29:11;15.40;99.90
16511;DHT22;8368;48.772;8.754;2023-10-13T07:31:37;15.50;99.90
16511;DHT22;8368;48.772;8.754;2023-10-13T07:34:10;15.60;99.90
16511;DHT22;8368;48.772;8.754;2023-10-13T07:36:39;15.70;99.90
16511;DHT22;8368;48.772;8.754;2023-10-13T07:39:05;15.80;99.90
16511;DHT22;8368;48.772;8.754;2023-10-13T07:41:50;15.90;99.90
16511;DHT22;8368;48.772;8.754;2023-10-13T07:44:30;16.00;99.90
16511;DHT22;8368;48.772;8.754;2023-10-13T07:46:58;16.10;99.90
16511;DHT22;8368;48.772;8.754;2023-10-13T07:49:35;16.20;99.90
16511;DHT22;8368;48.772;8.754;2023-10-13T07:52:03;16.40;99.90
16511;DHT22;8368;48.772;8.754;2023-10-13T07:54:50;16.50;99.90
16511;DHT22;8368;48.772;8.754;2023-10-13T07:57:35;16.60;99.90
16511;DHT22;8368;48.772;8.754;2023-10-13T08:00:01;16.70;99.90
16511;DHT22;8368;48.772;8.754;2023-10-13T08:02:58;16.80;99.90
16511;DHT22;8368;48.772;8.754;2023-10-13T08:05:43;17.00;99.90
16511;DHT22;8368;48.772;8.754;2023-10-13T08:08:23;17.20;99.90
16511;DHT22;8368;48.772;8.754;2023-10-13T08:10:52;17.40;99.90
16511;DHT22;8368;48.772;8.754;2023-10-13T08:13:21;17.60;99.90
16511;DHT22;8368;48.772;8.754;2023-10-13T08:15:47;17.80;99.90
16511;DHT22;8368;48.772;8.754;2023-10-13T08:18:14;18.00;99.90
16511;DHT22;8368;48.772;8.754;2023-10-13T08:20:57;18.20;99.90
16511;DHT22;8368;48.772;8.754;2023-10-13T08:23:28;18.50;99.90
16511;DHT22;8368;48.772;8.754;2023-10-13T08:26:14;18.80;99.90
16511;DHT22;8368;48.772;8.754;2023-10-13T08:29:04;18.90;99.90
16511;DHT22;8368;48.772;8.754;2023-10-13T08:31:50;19.10;99.90
16511;DHT22;8368;48.772;8.754;2023-10-13T08:34:39;19.30;99.90
16511;DHT22;8368;48.772;8.754;2023-10-13T08:37:26;19.30;99.90
16511;DHT22;8368;48.772;8.754;2023-10-13T08:39:56;19.30;99.90
16511;DHT22;8368;48.772;8.754;2023-10-13T08:42:45;19.50;99.90
16511;DHT22;8368;48.772;8.754;2023-10-13T08:45:12;19.50;99.90
16511;DHT22;8368;48.772;8.754;2023-10-13T08:47:55;19.60;99.90
16511;DHT22;8368;48.772;8.754;2023-10-13T08:50:50;19.80;99.90
16511;DHT22;8368;48.772;8.754;2023-10-13T08:53:23;19.80;99.90
16511;DHT22;8368;48.772;8.754;2023-10-13T08:56:00;19.90;99.90
16511;DHT22;8368;48.772;8.754;2023-10-13T08:58:46;20.00;99.90
16511;DHT22;8368;48.772;8.754;2023-10-13T09:04:08;20.30;99.90
16511;DHT22;8368;48.772;8.754;2023-10-13T09:06:45;20.40;99.90
16511;DHT22;8368;48.772;8.754;2023-10-13T09:09:13;20.50;99.90
16511;DHT22;8368;48.772;8.754;2023-10-13T09:12:22;20.70;99.90
16511;DHT22;8368;48.772;8.754;2023-10-13T09:14:56;20.80;99.90
16511;DHT22;8368;48.772;8.754;2023-10-13T09:17:30;21.00;99.90
16511;DHT22;8368;48.772;8.754;2023-10-13T09:20:00;21.00;99.90
16511;DHT22;8368;48.772;8.754;2023-10-13T09:22:45;21.10;99.90
16511;DHT22;8368;48.772;8.754;2023-10-13T09:25:22;21.30;99.90
16511;DHT22;8368;48.772;8.754;2023-10-13T09:27:48;21.40;99.90
16511;DHT22;8368;48.772;8.754;2023-10-13T09:30:17;21.40;99.90
16511;DHT22;8368;48.772;8.754;2023-10-13T09:32:47;21.60;99.90
16511;DHT22;8368;48.772;8.754;2023-10-13T09:35:17;21.90;99.90
16511;DHT22;8368;48.772;8.754;2023-10-13T09:37:44;21.90;99.90
16511;DHT22;8368;48.772;8.754;2023-10-13T09:40:17;21.90;99.90
16511;DHT22;8368;48.772;8.754;2023-10-13T09:42:59;22.10;99.90
16511;DHT22;8368;48.772;8.754;2023-10-13T09:45:31;22.20;99.90
16511;DHT22;8368;48.772;8.754;2023-10-13T09:48:12;22.40;99.90
16511;DHT22;8368;48.772;8.754;2023-10-13T09:50:52;22.30;99.90
16511;DHT22;8368;48.772;8.754;2023-10-13T09:53:22;22.50;99.90
16511;DHT22;8368;48.772;8.754;2023-10-13T09:55:58;22.50;99.90
16511;DHT22;8368;48.772;8.754;2023-10-13T09:58:28;22.50;99.90
16511;DHT22;8368;48.772;8.754;2023-10-13T10:01:02;22.40;99.90
16511;DHT22;8368;48.772;8.754;2023-10-13T10:03:50;22.20;99.90
16511;DHT22;8368;48.772;8.754;2023-10-13T10:06:33;21.90;99.90
16511;DHT22;8368;48.772;8.754;2023-10-13T10:09:06;21.80;99.90
16511;DHT22;8368;48.772;8.754;2023-10-13T10:14:40;21.90;99.90
16511;DHT22;8368;48.772;8.754;2023-10-13T10:17:08;22.00;99.90
16511;DHT22;8368;48.772;8.754;2023-10-13T10:19:51;22.20;99.90
16511;DHT22;8368;48.772;8.754;2023-10-13T10:22:31;22.30;99.90
16511;DHT22;8368;48.772;8.754;2023-10-13T10:25:04;22.50;99.90
16511;DHT22;8368;48.772;8.754;2023-10-13T10:27:33;22.70;99.90
16511;DHT22;8368;48.772;8.754;2023-10-13T10:30:00;22.80;99.90
16511;DHT22;8368;48.772;8.754;2023-10-13T10:32:36;23.10;99.90
16511;DHT22;8368;48.772;8.754;2023-10-13T10:35:06;23.30;99.90
16511;DHT22;8368;48.772;8.754;2023-10-13T10:37:41;23.70;99.90
16511;DHT22;8368;48.772;8.754;2023-10-13T10:40:16;23.60;99.90
16511;DHT22;8368;48.772;8.754;2023-10-13T10:43:00;23.60;99.90
16511;DHT22;8368;48.772;8.754;2023-10-13T10:45:27;23.70;99.90
16511;DHT22;8368;48.772;8.754;2023-10-13T10:47:59;23.80;99.90
16511;DHT22;8368;48.772;8.754;2023-10-13T10:50:26;23.80;99.90
16511;DHT22;8368;48.772;8.754;2023-10-13T10:53:03;24.00;99.90
16511;DHT22;8368;48.772;8.754;2023-10-13T10:55:32;23.90;99.90
16511;DHT22;8368;48.772;8.754;2023-10-13T10:58:01;24.00;99.90
16511;DHT22;8368;48.772;8.754;2023-10-13T11:00:26;24.10;99.90
16511;DHT22;8368;48.772;8.754;2023-10-13T11:03:03;24.20;99.90
16511;DHT22;8368;48.772;8.754;2023-10-13T11:05:30;24.30;99.90
16511;DHT22;8368;48.772;8.754;2023-10-13T11:07:59;24.40;99.90
16511;DHT22;8368;48.772;8.754;2023-10-13T11:10:24;24.20;99.90
16511;DHT22;8368;48.772;8.754;2023-10-13T11:12:56;24.10;99.90
16511;DHT22;8368;48.772;8.754;2023-10-13T11:15:44;24.10;99.90
16511;DHT22;8368;48.772;8.754;2023-10-13T11:18:10;23.90;99.90
16511;DHT22;8368;48.772;8.754;2023-10-13T11:20:42;23.90;99.90
16511;DHT22;8368;48.772;8.754;2023-10-13T11:23:12;23.90;99.90
16511;DHT22;8368;48.772;8.754;2023-10-13T11:25:38;23.90;99.90
16511;DHT22;8368;48.772;8.754;2023-10-13T11:30:43;24.40;98.60
16511;DHT22;8368;48.772;8.754;2023-10-13T11:33:14;24.70;99.00
16511;DHT22;8368;48.772;8.754;2023-10-13T11:35:43;24.70;98.20
16511;DHT22;8368;48.772;8.754;2023-10-13T11:38:28;24.90;98.00
16511;DHT22;8368;48.772;8.754;2023-10-13T11:41:01;25.00;98.20
16511;DHT22;8368;48.772;8.754;2023-10-13T11:43:30;25.10;97.70
16511;DHT22;8368;48.772;8.754;2023-10-13T11:46:00;25.10;97.30
16511;DHT22;8368;48.772;8.754;2023-10-13T11:48:39;25.20;96.80
16511;DHT22;8368;48.772;8.754;2023-10-13T11:51:11;25.20;97.10
16511;DHT22;8368;48.772;8.754;2023-10-13T11:53:49;25.30;97.90
16511;DHT22;8368;48.772;8.754;2023-10-13T11:56:17;25.20;98.30
16511;DHT22;8368;48.772;8.754;2023-10-13T11:58:46;25.20;97.40
16511;DHT22;8368;48.772;8.754;2023-10-13T12:01:12;25.10;97.10
16511;DHT22;8368;48.772;8.754;2023-10-13T12:03:39;25.10;97.70
16511;DHT22;8368;48.772;8.754;2023-10-13T12:06:23;25.00;99.00
16511;DHT22;8368;48.772;8.754;2023-10-13T12:09:10;25.00;97.90
16511;DHT22;8368;48.772;8.754;2023-10-13T12:12:05;25.20;96.60
16511;DHT22;8368;48.772;8.754;2023-10-13T12:14:30;25.10;97.30
16511;DHT22;8368;48.772;8.754;2023-10-13T12:17:18;25.30;97.50
16511;DHT22;8368;48.772;8.754;2023-10-13T12:19:51;25.40;97.10
16511;DHT22;8368;48.772;8.754;2023-10-13T12:22:17;25.60;97.00
16511;DHT22;8368;48.772;8.754;2023-10-13T12:24:50;25.60;96.30
16511;DHT22;8368;48.772;8.754;2023-10-13T12:27:19;25.70;96.60
16511;DHT22;8368;48.772;8.754;2023-10-13T12:29:48;25.90;95.20
16511;DHT22;8368;48.772;8.754;2023-10-13T12:32:14;26.00;94.80
16511;DHT22;8368;48.772;8.754;2023-10-13T12:34:46;26.00;95.90
16511;DHT22;8368;48.772;8.754;2023-10-13T12:37:32;25.90;96.50
16511;DHT22;8368;48.772;8.754;2023-10-13T12:40:22;25.90;96.60
16511;DHT22;8368;48.772;8.754;2023-10-13T12:43:05;26.00;95.80
16511;DHT22;8368;48.772;8.754;2023-10-13T12:45:50;25.90;95.40
16511;DHT22;8368;48.772;8.754;2023-10-13T12:48:36;26.10;94.20
16511;DHT22;8368;48.772;8.754;2023-10-13T12:51:21;26.20;94.30
16511;DHT22;8368;48.772;8.754;2023-10-13T12:53:54;26.20;94.90
16511;DHT22;8368;48.772;8.754;2023-10-13T12:56:21;26.30;95.40
16511;DHT22;8368;48.772;8.754;2023-10-13T12:58:54;26.30;95.50
16511;DHT22;8368;48.772;8.754;2023-10-13T13:01:26;26.40;94.30
16511;DHT22;8368;48.772;8.754;2023-10-13T13:03:58;26.90;93.70
16511;DHT22;8368;48.772;8.754;2023-10-13T13:06:25;27.80;93.90
16511;DHT22;8368;48.772;8.754;2023-10-13T13:08:56;28.30;93.20
16511;DHT22;8368;48.772;8.754;2023-10-13T13:11:22;29.10;91.60
16511;DHT22;8368;48.772;8.754;2023-10-13T13:13:48;29.60;91.20
16511;DHT22;8368;48.772;8.754;2023-10-13T13:16:17;29.60;91.00
16511;DHT22;8368;48.772;8.754;2023-10-13T13:18:52;29.30;91.10
16511;DHT22;8368;48.772;8.754;2023-10-13T13:21:20;28.90;90.70
16511;DHT22;8368;48.772;8.754;2023-10-13T13:23:48;28.70;90.20
16511;DHT22;8368;48.772;8.754;2023-10-13T13:26:14;28.40;91.10
16511;DHT22;8368;48.772;8.754;2023-10-13T13:28:46;28.40;90.70
16511;DHT22;8368;48.772;8.754;2023-10-13T13:31:15;27.90;90.00
16511;DHT22;8368;48.772;8.754;2023-10-13T13:33:41;27.60;90.80
16511;DHT22;8368;48.772;8.754;2023-10-13T13:36:12;27.10;90.90
16511;DHT22;8368;48.772;8.754;2023-10-13T13:38:41;26.80;90.80
16511;DHT22;8368;48.772;8.754;2023-10-13T13:41:14;26.50;91.70
16511;DHT22;8368;48.772;8.754;2023-10-13T13:43:49;26.30;91.60
16511;DHT22;8368;48.772;8.754;2023-10-13T13:46:16;26.20;91.40
16511;DHT22;8368;48.772;8.754;2023-10-13T13:48:42;26.10;92.40
16511;DHT22;8368;48.772;8.754;2023-10-13T13:51:09;25.90;93.40
16511;DHT22;8368;48.772;8.754;2023-10-13T13:53:44;25.80;91.70
16511;DHT22;8368;48.772;8.754;2023-10-13T13:56:14;25.80;91.70
16511;DHT22;8368;48.772;8.754;2023-10-13T13:58:44;25.80;91.80
16511;DHT22;8368;48.772;8.754;2023-10-13T14:01:10;25.80;91.80
16511;DHT22;8368;48.772;8.754;2023-10-13T14:03:45;25.80;92.30
16511;DHT22;8368;48.772;8.754;2023-10-13T14:06:12;25.70;92.20
16511;DHT22;8368;48.772;8.754;2023-10-13T14:08:46;25.60;92.40
16511;DHT22;8368;48.772;8.754;2023-10-13T14:11:14;25.50;92.80
16511;DHT22;8368;48.772;8.754;2023-10-13T14:13:59;25.40;93.20
16511;DHT22;8368;48.772;8.754;2023-10-13T14:16:29;25.40;93.00
16511;DHT22;8368;48.772;8.754;2023-10-13T14:18:55;25.40;92.80
16511;DHT22;8368;48.772;8.754;2023-10-13T14:21:21;25.40;93.30
16511;DHT22;8368;48.772;8.754;2023-10-13T14:23:50;25.30;93.40
16511;DHT22;8368;48.772;8.754;2023-10-13T14:26:19;25.20;94.40
16511;DHT22;8368;48.772;8.754;2023-10-13T14:28:51;25.10;94.30
16511;DHT22;8368;48.772;8.754;2023-10-13T14:31:31;25.00;93.20
16511;DHT22;8368;48.772;8.754;2023-10-13T14:33:56;25.00;93.10
16511;DHT22;8368;48.772;8.754;2023-10-13T14:36:23;25.00;92.60
16511;DHT22;8368;48.772;8.754;2023-10-13T14:38:49;25.10;92.60
16511;DHT22;8368;48.772;8.754;2023-10-13T14:41:18;25.20;92.90
16511;DHT22;8368;48.772;8.754;2023-10-13T14:43:44;25.20;93.20
16511;DHT22;8368;48.772;8.754;2023-10-13T14:46:17;25.10;93.80
16511;DHT22;8368;48.772;8.754;2023-10-13T14:48:43;25.10;93.00
16511;DHT22;8368;48.772;8.754;2023-10-13T14:51:12;24.90;93.30
16511;DHT22;8368;48.772;8.754;2023-10-13T14:53:39;24.90;93.70
16511;DHT22;8368;48.772;8.754;2023-10-13T14:56:09;24.80;93.20
16511;DHT22;8368;48.772;8.754;2023-10-13T14:58:35;24.70;94.30
16511;DHT22;8368;48.772;8.754;2023-10-13T15:01:00;24.70;94.10
16511;DHT22;8368;48.772;8.754;2023-10-13T15:03:26;24.60;94.20
16511;DHT22;8368;48.772;8.754;2023-10-13T15:05:52;24.40;95.20
16511;DHT22;8368;48.772;8.754;2023-10-13T15:08:20;24.40;94.60
16511;DHT22;8368;48.772;8.754;2023-10-13T15:10:46;24.30;94.90
16511;DHT22;8368;48.772;8.754;2023-10-13T15:13:11;24.20;95.30
16511;DHT22;8368;48.772;8.754;2023-10-13T15:15:37;24.10;95.40
16511;DHT22;8368;48.772;8.754;2023-10-13T15:18:04;24.00;94.80
16511;DHT22;8368;48.772;8.754;2023-10-13T15:20:30;24.00;95.60
16511;DHT22;8368;48.772;8.754;2023-10-13T15:22:55;24.00;95.30
16511;DHT22;8368;48.772;8.754;2023-10-13T15:25:26;24.10;95.20
16511;DHT22;8368;48.772;8.754;2023-10-13T15:27:58;23.90;95.70
16511;DHT22;8368;48.772;8.754;2023-10-13T15:30:27;23.80;95.50
16511;DHT22;8368;48.772;8.754;2023-10-13T15:33:08;23.70;95.90
16511;DHT22;8368;48.772;8.754;2023-10-13T15:35:33;23.60;95.70
16511;DHT22;8368;48.772;8.754;2023-10-13T15:37:59;23.40;95.70
16511;DHT22;8368;48.772;8.754;2023-10-13T15:40:26;23.50;95.70
16511;DHT22;8368;48.772;8.754;2023-10-13T15:42:53;23.50;95.00
16511;DHT22;8368;48.772;8.754;2023-10-13T15:45:25;23.40;95.00
16511;DHT22;8368;48.772;8.754;2023-10-13T15:47:57;23.50;94.50
16511;DHT22;8368;48.772;8.754;2023-10-13T15:50:23;23.50;94.00
16511;DHT22;8368;48.772;8.754;2023-10-13T15:52:49;23.50;93.70
16511;DHT22;8368;48.772;8.754;2023-10-13T15:55:16;23.40;94.50
16511;DHT22;8368;48.772;8.754;2023-10-13T15:57:45;23.30;94.10
16511;DHT22;8368;48.772;8.754;2023-10-13T16:00:11;23.30;93.30
16511;DHT22;8368;48.772;8.754;2023-10-13T16:02:53;23.20;94.40
16511;DHT22;8368;48.772;8.754;2023-10-13T16:05:20;23.20;93.20
16511;DHT22;8368;48.772;8.754;2023-10-13T16:07:52;23.10;93.90
16511;DHT22;8368;48.772;8.754;2023-10-13T16:10:21;23.20;93.00
16511;DHT22;8368;48.772;8.754;2023-10-13T16:12:46;23.20;93.20
16511;DHT22;8368;48.772;8.754;2023-10-13T16:15:12;23.10;93.50
16511;DHT22;8368;48.772;8.754;2023-10-13T16:17:42;23.00;93.60
16511;DHT22;8368;48.772;8.754;2023-10-13T16:20:09;22.80;93.80
16511;DHT22;8368;48.772;8.754;2023-10-13T16:22:45;22.60;94.50
16511;DHT22;8368;48.772;8.754;2023-10-13T16:25:15;22.50;94.40
16511;DHT22;8368;48.772;8.754;2023-10-13T16:27:41;22.30;95.00
16511;DHT22;8368;48.772;8.754;2023-10-13T16:30:09;22.20;94.30
16511;DHT22;8368;48.772;8.754;2023-10-13T16:32:36;22.10;95.30
16511;DHT22;8368;48.772;8.754;2023-10-13T16:35:05;22.00;94.70
16511;DHT22;8368;48.772;8.754;2023-10-13T16:37:31;21.90;94.80
16511;DHT22;8368;48.772;8.754;2023-10-13T16:39:57;21.80;95.20